Time;durP1;ratioP1;P1;durP2;ratioP2;P2;SDS_P1;SDS_P2;PMS_P1;PMS_P2;Temp;Humidity;BMP_temperature;BMP_pressure;BME280_temperature;BME280_humidity;BME280_pressure;Samples;Min_cycle;Max_cycle;Signal;HPM_P1;HPM_P2
2023/04/25 00:01:24;;;;;;;3.00;1.63;;;;;;;;;;4955639;28;20492;-77
2023/04/25 00:03:50;;;;;;;2.70;1.88;;;;;;;;;;4962777;28;20039;-77
2023/04/25 00:06:15;;;;;;;3.22;2.00;;;;;;;;;;4968016;28;20451;-77
2023/04/25 00:08:41;;;;;;;2.58;1.42;;;;;;;;;;4958575;28;20492;-77
2023/04/25 00:11:06;;;;;;;2.20;1.70;;;;;;;;;;4956069;28;20038;-77
2023/04/25 00:13:32;;;;;;;4.82;2.17;;;;;;;;;;4948273;28;20050;-76
2023/04/25 00:15:57;;;;;;;3.40;1.80;;;;;;;;;;4967585;28;20058;-77
2023/04/25 00:18:24;;;;;;;2.75;1.73;;;;;;;;;;4964997;28;20037;-77
2023/04/25 00:20:50;;;;;;;3.80;1.58;;;;;;;;;;4977486;28;20519;-77
2023/04/25 00:23:18;;;;;;;4.10;1.80;;;;;;;;;;4970009;28;20057;-76
2023/04/25 00:25:44;;;;;;;4.00;2.00;;;;;;;;;;4941988;28;20042;-76
2023/04/25 00:28:11;;;;;;;4.10;1.70;;;;;;;;;;4950789;28;20118;-77
2023/04/25 00:30:36;;;;;;;3.13;1.80;;;;;;;;;;4967947;28;20025;-77
2023/04/25 00:33:01;;;;;;;4.05;1.85;;;;;;;;;;4957955;28;20046;-77
2023/04/25 00:35:27;;;;;;;3.75;2.05;;;;;;;;;;4976818;28;20042;-77
2023/04/25 00:37:52;;;;;;;4.07;2.10;;;;;;;;;;4966752;28;20037;-77
2023/04/25 00:40:17;;;;;;;2.65;1.10;;;;;;;;;;4957756;28;20042;-77
2023/04/25 00:42:45;;;;;;;2.65;1.90;;;;;;;;;;4964090;28;20038;-77
2023/04/25 00:45:14;;;;;;;3.88;2.00;;;;;;;;;;4962700;28;20149;-77
2023/04/25 00:47:40;;;;;;;2.63;1.98;;;;;;;;;;4972299;28;20096;-76
2023/04/25 00:50:06;;;;;;;3.20;1.92;;;;;;;;;;4977043;28;20133;-76
2023/04/25 00:52:32;;;;;;;5.10;2.83;;;;;;;;;;4961942;28;20030;-77
2023/04/25 00:54:57;;;;;;;7.30;2.40;;;;;;;;;;4962576;28;21031;-77
2023/04/25 00:57:23;;;;;;;7.75;2.72;;;;;;;;;;4978165;28;20050;-77
2023/04/25 00:59:50;;;;;;;6.00;3.13;;;;;;;;;;4959591;28;20115;-76
2023/04/25 01:02:16;;;;;;;5.47;2.38;;;;;;;;;;4975116;28;20132;-76
2023/04/25 01:04:41;;;;;;;2.35;1.30;;;;;;;;;;4970432;28;20026;-77
2023/04/25 01:07:07;;;;;;;6.90;2.63;;;;;;;;;;4957070;28;20042;-77
2023/04/25 01:09:32;;;;;;;3.30;1.92;;;;;;;;;;4963312;28;20049;-76
2023/04/25 01:11:58;;;;;;;7.60;3.78;;;;;;;;;;4972985;28;20069;-76
2023/04/25 01:14:23;;;;;;;6.57;3.55;;;;;;;;;;4964233;28;20042;-76
2023/04/25 01:16:49;;;;;;;8.23;3.88;;;;;;;;;;4978600;28;20096;-76
2023/04/25 01:19:17;;;;;;;5.88;3.88;;;;;;;;;;4972097;28;20034;-76
2023/04/25 01:21:43;;;;;;;7.88;3.90;;;;;;;;;;4963247;28;20042;-76
2023/04/25 01:24:09;;;;;;;4.35;3.00;;;;;;;;;;4971596;28;20038;-76
2023/04/25 01:26:35;;;;;;;5.75;3.25;;;;;;;;;;4971753;28;20101;-77
2023/04/25 01:29:01;;;;;;;8.45;4.07;;;;;;;;;;4961960;28;20034;-76
2023/04/25 01:31:27;;;;;;;6.53;4.38;;;;;;;;;;4965009;28;20578;-76
2023/04/25 01:33:53;;;;;;;5.78;3.30;;;;;;;;;;4966868;28;20664;-76
2023/04/25 01:36:18;;;;;;;9.52;4.38;;;;;;;;;;4955383;28;20046;-76
2023/04/25 01:38:46;;;;;;;8.60;4.57;;;;;;;;;;4958117;28;20042;-77
2023/04/25 01:41:11;;;;;;;4.32;3.25;;;;;;;;;;4965338;28;20043;-76
2023/04/25 01:43:37;;;;;;;8.30;4.32;;;;;;;;;;4970992;28;20758;-76
2023/04/25 01:46:02;;;;;;;7.95;4.30;;;;;;;;;;4971113;28;20062;-77
2023/04/25 01:48:27;;;;;;;10.77;4.93;;;;;;;;;;4967148;28;20089;-77
2023/04/25 01:50:53;;;;;;;6.53;3.33;;;;;;;;;;4962087;28;20052;-75
2023/04/25 01:53:18;;;;;;;9.68;5.05;;;;;;;;;;4966934;28;21811;-76
2023/04/25 01:55:44;;;;;;;9.32;5.32;;;;;;;;;;4958377;28;20062;-77
2023/04/25 01:58:12;;;;;;;7.28;4.38;;;;;;;;;;4969941;28;20093;-77
2023/04/25 02:00:38;;;;;;;10.25;5.53;;;;;;;;;;4973974;28;20038;-76
2023/04/25 02:03:04;;;;;;;11.40;5.95;;;;;;;;;;4958922;28;20038;-76
2023/04/25 02:05:35;;;;;;;4.95;2.65;;;;;;;;;;4965363;28;20137;-76
2023/04/25 02:08:00;;;;;;;5.68;3.80;;;;;;;;;;4959179;28;20035;-76
2023/04/25 02:10:26;;;;;;;11.50;5.65;;;;;;;;;;4957117;28;20041;-76
2023/04/25 02:12:51;;;;;;;7.53;4.95;;;;;;;;;;4974147;28;20072;-76
2023/04/25 02:15:17;;;;;;;14.73;6.57;;;;;;;;;;4973566;28;20049;-76
2023/04/25 02:17:42;;;;;;;10.00;4.45;;;;;;;;;;4960136;28;20050;-76
2023/04/25 02:20:08;;;;;;;6.55;3.65;;;;;;;;;;4954947;28;20042;-77
2023/04/25 02:22:35;;;;;;;10.30;5.45;;;;;;;;;;4970848;28;20038;-76
2023/04/25 02:25:00;;;;;;;9.95;4.82;;;;;;;;;;4944154;28;20063;-76
2023/04/25 02:27:26;;;;;;;8.48;4.82;;;;;;;;;;4969913;28;20531;-77
2023/04/25 02:29:51;;;;;;;7.10;3.53;;;;;;;;;;4971499;28;20076;-77
2023/04/25 02:32:34;;;;;;;9.70;4.70;;;;;;;;;;4967340;23;20059;-73
2023/04/25 02:35:03;;;;;;;7.55;4.20;;;;;;;;;;4945367;28;20035;-76
2023/04/25 02:37:32;;;;;;;10.45;4.88;;;;;;;;;;4936679;28;20034;-75
2023/04/25 02:39:58;;;;;;;7.90;4.20;;;;;;;;;;4949761;28;20050;-75
2023/04/25 02:42:23;;;;;;;13.20;4.97;;;;;;;;;;4952064;28;20046;-75
2023/04/25 02:44:49;;;;;;;6.57;3.97;;;;;;;;;;4939635;28;20105;-76
2023/04/25 02:47:14;;;;;;;7.80;4.68;;;;;;;;;;4949861;28;20051;-75
2023/04/25 02:49:40;;;;;;;6.30;4.10;;;;;;;;;;4939670;28;20038;-75
2023/04/25 02:52:05;;;;;;;8.50;3.97;;;;;;;;;;4955839;28;20057;-76
2023/04/25 02:54:31;;;;;;;4.97;2.88;;;;;;;;;;4951083;28;20110;-74
2023/04/25 02:56:56;;;;;;;9.65;4.40;;;;;;;;;;4950034;28;20102;-74
2023/04/25 02:59:22;;;;;;;7.93;3.97;;;;;;;;;;4939837;28;20052;-76
2023/04/25 03:01:47;;;;;;;10.85;5.15;;;;;;;;;;4947185;28;20046;-74
2023/04/25 03:04:13;;;;;;;11.18;4.05;;;;;;;;;;4939123;28;20048;-75
2023/04/25 03:06:38;;;;;;;9.13;4.32;;;;;;;;;;4933139;28;20046;-75
2023/04/25 03:09:03;;;;;;;5.20;2.92;;;;;;;;;;4955280;28;20078;-75
2023/04/25 03:11:29;;;;;;;7.78;4.10;;;;;;;;;;4947542;28;20049;-76
2023/04/25 03:13:54;;;;;;;4.25;2.90;;;;;;;;;;4950957;28;20038;-75
2023/04/25 03:16:20;;;;;;;11.85;4.20;;;;;;;;;;4956009;28;20482;-75
2023/04/25 03:18:45;;;;;;;4.25;2.45;;;;;;;;;;4946314;28;20105;-75
2023/04/25 03:21:10;;;;;;;5.68;2.60;;;;;;;;;;4948323;28;20121;-75
2023/04/25 03:23:36;;;;;;;8.88;4.32;;;;;;;;;;4957004;28;20046;-75
2023/04/25 03:26:01;;;;;;;9.90;4.40;;;;;;;;;;4938976;28;20042;-74
2023/04/25 03:28:27;;;;;;;6.97;3.10;;;;;;;;;;4952453;28;20066;-75
2023/04/25 03:30:53;;;;;;;7.68;3.63;;;;;;;;;;4949058;28;20478;-74
2023/04/25 03:33:19;;;;;;;10.00;3.88;;;;;;;;;;4939070;28;20054;-75
2023/04/25 03:35:44;;;;;;;8.98;3.83;;;;;;;;;;4949254;28;20097;-74
2023/04/25 03:38:10;;;;;;;7.43;3.95;;;;;;;;;;4948665;28;20380;-75
2023/04/25 03:40:35;;;;;;;8.13;3.72;;;;;;;;;;4941093;28;20038;-75
2023/04/25 03:43:00;;;;;;;13.23;4.00;;;;;;;;;;4948845;28;20039;-75
2023/04/25 03:45:26;;;;;;;9.43;3.85;;;;;;;;;;4948157;28;20050;-76
2023/04/25 03:47:51;;;;;;;8.18;3.58;;;;;;;;;;4939721;28;20035;-74
2023/04/25 03:50:17;;;;;;;8.02;4.07;;;;;;;;;;4953912;28;20571;-75
2023/04/25 03:52:43;;;;;;;6.85;3.72;;;;;;;;;;4952384;28;20034;-75
2023/04/25 03:55:09;;;;;;;8.90;3.88;;;;;;;;;;4941177;28;20038;-75
2023/04/25 03:57:34;;;;;;;7.50;3.75;;;;;;;;;;4947830;28;20050;-74
2023/04/25 04:00:00;;;;;;;13.27;4.32;;;;;;;;;;4939673;28;20096;-75
2023/04/25 04:02:25;;;;;;;9.57;4.18;;;;;;;;;;4938351;28;20069;-75
2023/04/25 04:04:50;;;;;;;3.58;2.60;;;;;;;;;;4949141;28;20043;-74
2023/04/25 04:07:16;;;;;;;7.75;3.78;;;;;;;;;;4932480;28;20679;-75
2023/04/25 04:09:41;;;;;;;7.95;3.72;;;;;;;;;;4938318;28;20078;-75
2023/04/25 04:12:06;;;;;;;7.10;3.50;;;;;;;;;;4940344;28;20054;-74
2023/04/25 04:14:32;;;;;;;2.95;2.17;;;;;;;;;;4951079;28;20407;-75
2023/04/25 04:16:57;;;;;;;9.63;3.90;;;;;;;;;;4945540;28;20098;-75
2023/04/25 04:19:22;;;;;;;6.00;3.55;;;;;;;;;;4955268;28;20046;-74
2023/04/25 04:21:48;;;;;;;6.47;3.97;;;;;;;;;;4951408;28;20062;-75
2023/04/25 04:24:14;;;;;;;8.00;3.88;;;;;;;;;;4940803;28;20042;-75
2023/04/25 04:26:40;;;;;;;9.20;4.00;;;;;;;;;;4951197;28;20104;-75
2023/04/25 04:29:06;;;;;;;7.97;3.97;;;;;;;;;;4942874;28;20129;-75
2023/04/25 04:31:32;;;;;;;5.60;3.90;;;;;;;;;;4943011;28;20094;-75
2023/04/25 04:33:58;;;;;;;8.88;3.92;;;;;;;;;;4940279;28;20061;-74
2023/04/25 04:36:25;;;;;;;3.13;2.35;;;;;;;;;;4929099;28;20491;-74
2023/04/25 04:38:52;;;;;;;9.27;4.15;;;;;;;;;;4917502;28;20095;-74
2023/04/25 04:41:19;;;;;;;6.45;4.03;;;;;;;;;;4949529;28;20038;-74
2023/04/25 04:43:44;;;;;;;6.55;3.95;;;;;;;;;;4938874;28;20038;-74
2023/04/25 04:46:10;;;;;;;7.97;3.70;;;;;;;;;;4944295;28;20050;-75
2023/04/25 04:48:35;;;;;;;9.48;4.60;;;;;;;;;;4946554;28;20042;-75
2023/04/25 04:51:01;;;;;;;7.03;3.58;;;;;;;;;;4941148;28;20078;-75
2023/04/25 04:53:27;;;;;;;11.43;4.38;;;;;;;;;;4949024;28;20121;-75
2023/04/25 04:55:52;;;;;;;12.02;4.55;;;;;;;;;;4939168;28;20712;-74
2023/04/25 04:58:18;;;;;;;9.65;4.20;;;;;;;;;;4925597;28;20078;-74
2023/04/25 05:00:43;;;;;;;7.07;3.90;;;;;;;;;;4944492;28;20039;-75
2023/04/25 05:03:08;;;;;;;7.90;4.30;;;;;;;;;;4947762;28;20038;-76
2023/04/25 05:05:34;;;;;;;11.38;4.60;;;;;;;;;;4935449;28;20152;-75
2023/04/25 05:07:59;;;;;;;5.93;3.80;;;;;;;;;;4947364;28;20683;-74
2023/04/25 05:10:25;;;;;;;5.82;2.95;;;;;;;;;;4946091;28;20043;-75
2023/04/25 05:12:50;;;;;;;7.35;3.63;;;;;;;;;;4942971;28;20034;-75
2023/04/25 05:15:16;;;;;;;6.03;4.00;;;;;;;;;;4947667;28;20648;-75
2023/04/25 05:17:41;;;;;;;4.07;2.60;;;;;;;;;;4955980;28;20045;-75
2023/04/25 05:20:09;;;;;;;9.95;4.38;;;;;;;;;;4937305;28;20047;-74
2023/04/25 05:22:34;;;;;;;4.32;3.08;;;;;;;;;;4944819;28;20402;-74
2023/04/25 05:25:00;;;;;;;11.10;5.38;;;;;;;;;;4943068;28;20041;-74
2023/04/25 05:27:25;;;;;;;3.17;2.03;;;;;;;;;;4952825;28;20058;-74
2023/04/25 05:29:52;;;;;;;5.35;3.25;;;;;;;;;;4960285;28;20069;-74
2023/04/25 05:32:17;;;;;;;6.75;4.30;;;;;;;;;;4954446;28;20057;-75
2023/04/25 05:34:43;;;;;;;8.52;4.97;;;;;;;;;;4947006;28;20141;-76
2023/04/25 05:37:08;;;;;;;3.80;2.92;;;;;;;;;;4960431;28;20038;-75
2023/04/25 05:39:34;;;;;;;8.55;4.22;;;;;;;;;;4958071;28;20091;-76
2023/04/25 05:41:59;;;;;;;7.68;4.57;;;;;;;;;;4957051;28;20034;-76
2023/04/25 05:44:24;;;;;;;6.93;4.30;;;;;;;;;;4957105;28;20046;-74
2023/04/25 05:46:50;;;;;;;7.15;4.28;;;;;;;;;;4960404;28;20043;-74
2023/04/25 05:49:15;;;;;;;5.05;3.20;;;;;;;;;;4949952;28;20048;-74
2023/04/25 05:51:41;;;;;;;5.60;3.55;;;;;;;;;;4958915;28;20452;-74
2023/04/25 05:54:06;;;;;;;2.72;2.40;;;;;;;;;;4960904;28;20596;-75
2023/04/25 05:56:31;;;;;;;5.95;3.42;;;;;;;;;;4962087;28;20031;-74
2023/04/25 05:58:57;;;;;;;6.57;4.40;;;;;;;;;;4956158;28;20049;-74
2023/04/25 06:01:23;;;;;;;7.45;4.15;;;;;;;;;;4956090;28;20647;-74
2023/04/25 06:03:48;;;;;;;6.60;4.00;;;;;;;;;;4958516;28;20126;-74
2023/04/25 06:06:13;;;;;;;7.15;3.30;;;;;;;;;;4958329;28;20047;-77
2023/04/25 06:08:39;;;;;;;8.40;4.30;;;;;;;;;;4958222;28;20395;-74
2023/04/25 06:11:05;;;;;;;5.38;3.45;;;;;;;;;;4958166;28;20035;-74
2023/04/25 06:13:31;;;;;;;3.63;2.85;;;;;;;;;;4967477;28;20045;-74
2023/04/25 06:15:56;;;;;;;5.15;3.25;;;;;;;;;;4953581;28;20089;-76
2023/04/25 06:18:22;;;;;;;5.63;2.50;;;;;;;;;;4960918;28;20043;-74
2023/04/25 06:20:47;;;;;;;4.78;2.67;;;;;;;;;;4954881;28;20048;-74
2023/04/25 06:23:12;;;;;;;4.47;2.90;;;;;;;;;;4958350;28;20587;-75
2023/04/25 06:25:38;;;;;;;4.18;2.58;;;;;;;;;;4956118;28;20046;-74
2023/04/25 06:28:03;;;;;;;2.92;2.47;;;;;;;;;;4962750;28;20050;-74
2023/04/25 06:30:29;;;;;;;3.38;2.10;;;;;;;;;;4951277;28;20113;-74
2023/04/25 06:32:55;;;;;;;4.10;2.80;;;;;;;;;;4960545;28;20395;-74
2023/04/25 06:35:20;;;;;;;4.50;2.47;;;;;;;;;;4960754;28;20035;-76
2023/04/25 06:37:46;;;;;;;4.32;2.00;;;;;;;;;;4961738;28;20519;-76
2023/04/25 06:40:11;;;;;;;5.45;2.55;;;;;;;;;;4957553;28;20065;-75
2023/04/25 06:42:36;;;;;;;3.47;2.08;;;;;;;;;;4954347;28;20118;-78
2023/04/25 06:45:02;;;;;;;4.63;2.30;;;;;;;;;;4918800;28;20045;-77
2023/04/25 06:47:29;;;;;;;3.13;2.03;;;;;;;;;;4914204;28;20038;-76
2023/04/25 06:49:55;;;;;;;4.10;2.13;;;;;;;;;;4952212;28;20516;-75
2023/04/25 06:52:20;;;;;;;7.38;2.85;;;;;;;;;;4955626;28;20050;-75
2023/04/25 06:54:45;;;;;;;3.85;1.92;;;;;;;;;;4958235;28;20530;-76
2023/04/25 06:57:11;;;;;;;2.53;1.30;;;;;;;;;;4962614;28;20038;-75
2023/04/25 06:59:36;;;;;;;5.35;1.83;;;;;;;;;;4946628;28;20055;-77
2023/04/25 07:02:02;;;;;;;6.50;2.17;;;;;;;;;;4944766;28;20034;-75
2023/04/25 07:04:27;;;;;;;4.53;1.17;;;;;;;;;;4943884;28;20094;-75
2023/04/25 07:06:53;;;;;;;6.05;1.70;;;;;;;;;;4950812;28;20043;-76
2023/04/25 07:09:18;;;;;;;4.15;1.83;;;;;;;;;;4957189;28;20050;-75
2023/04/25 07:11:43;;;;;;;6.88;2.25;;;;;;;;;;4950002;28;20042;-74
2023/04/25 07:14:09;;;;;;;3.10;1.42;;;;;;;;;;4925467;28;20044;-76
2023/04/25 07:16:34;;;;;;;6.88;2.08;;;;;;;;;;4957081;28;20570;-75
2023/04/25 07:19:00;;;;;;;7.30;2.17;;;;;;;;;;4954988;28;20049;-75
2023/04/25 07:21:26;;;;;;;5.72;1.55;;;;;;;;;;4955962;28;20038;-74
2023/04/25 07:23:51;;;;;;;9.60;2.40;;;;;;;;;;4947556;28;20045;-75
2023/04/25 07:26:16;;;;;;;6.95;2.25;;;;;;;;;;4950925;28;20042;-75
2023/04/25 07:28:43;;;;;;;3.00;1.50;;;;;;;;;;4945004;28;20062;-74
2023/04/25 07:31:08;;;;;;;6.63;1.83;;;;;;;;;;4950674;28;20051;-74
2023/04/25 07:33:34;;;;;;;4.25;2.00;;;;;;;;;;4949810;28;20054;-75
2023/04/25 07:36:00;;;;;;;2.60;1.23;;;;;;;;;;4954683;28;20039;-74
2023/04/25 07:38:25;;;;;;;3.75;1.77;;;;;;;;;;4954523;28;20038;-75
2023/04/25 07:40:51;;;;;;;6.05;2.15;;;;;;;;;;4943816;28;20034;-74
2023/04/25 07:43:16;;;;;;;5.10;2.42;;;;;;;;;;4947203;28;20062;-75
2023/04/25 07:45:46;;;;;;;6.43;2.53;;;;;;;;;;4944300;28;20045;-75
2023/04/25 07:48:12;;;;;;;6.35;2.40;;;;;;;;;;4957599;28;20045;-75
2023/04/25 07:50:38;;;;;;;6.22;1.65;;;;;;;;;;4951621;28;20035;-76
2023/04/25 07:53:03;;;;;;;9.40;2.40;;;;;;;;;;4936349;28;20423;-75
2023/04/25 07:55:29;;;;;;;8.00;2.50;;;;;;;;;;4945477;28;20164;-75
2023/04/25 07:57:54;;;;;;;7.57;1.92;;;;;;;;;;4936100;28;20038;-75
2023/04/25 08:00:20;;;;;;;5.35;1.95;;;;;;;;;;4953222;28;20060;-76
2023/04/25 08:02:45;;;;;;;6.57;2.25;;;;;;;;;;4943905;28;20523;-74
2023/04/25 08:05:14;;;;;;;3.20;1.65;;;;;;;;;;4958004;28;20672;-75
2023/04/25 08:07:40;;;;;;;2.65;1.65;;;;;;;;;;4953726;28;20037;-75
2023/04/25 08:10:06;;;;;;;5.68;2.15;;;;;;;;;;4944385;28;20145;-74
2023/04/25 08:12:32;;;;;;;2.45;1.48;;;;;;;;;;4948592;28;20038;-74
2023/04/25 08:14:57;;;;;;;10.90;2.00;;;;;;;;;;4954217;28;20057;-75
2023/04/25 08:17:23;;;;;;;4.45;2.03;;;;;;;;;;4953463;28;20129;-75
2023/04/25 08:19:49;;;;;;;5.05;1.63;;;;;;;;;;4957901;28;20035;-73
2023/04/25 08:22:14;;;;;;;3.10;1.50;;;;;;;;;;4955499;28;20039;-74
2023/04/25 08:24:40;;;;;;;6.85;2.15;;;;;;;;;;4925872;28;20503;-73
2023/04/25 08:27:07;;;;;;;5.97;2.13;;;;;;;;;;4948727;28;20136;-76
2023/04/25 08:29:32;;;;;;;5.70;1.98;;;;;;;;;;4951786;28;20035;-75
2023/04/25 08:31:58;;;;;;;5.85;1.92;;;;;;;;;;4952002;28;20047;-76
2023/04/25 08:34:23;;;;;;;6.03;1.80;;;;;;;;;;4936981;28;20050;-73
2023/04/25 08:36:49;;;;;;;5.22;1.58;;;;;;;;;;4946311;28;20034;-74
2023/04/25 08:39:14;;;;;;;5.07;1.77;;;;;;;;;;4956268;28;20077;-74
2023/04/25 08:41:41;;;;;;;5.00;2.05;;;;;;;;;;4950293;28;20039;-75
2023/04/25 08:44:09;;;;;;;5.43;1.90;;;;;;;;;;4943572;28;20043;-73
2023/04/25 08:46:37;;;;;;;6.43;1.70;;;;;;;;;;4955805;28;20060;-74
2023/04/25 08:49:02;;;;;;;8.27;2.38;;;;;;;;;;4955074;28;20038;-74
2023/04/25 08:51:33;;;;;;;6.47;1.50;;;;;;;;;;4940586;28;20039;-76
2023/04/25 08:54:27;;;;;;;4.85;1.90;;;;;;;;;;4945290;28;20130;-74
2023/04/25 08:56:54;;;;;;;7.55;1.90;;;;;;;;;;4952590;28;20043;-75
2023/04/25 08:59:20;;;;;;;7.20;2.10;;;;;;;;;;4955358;28;20126;-73
2023/04/25 09:01:45;;;;;;;3.03;1.40;;;;;;;;;;4943214;28;20480;-74
2023/04/25 09:04:12;;;;;;;6.70;2.20;;;;;;;;;;4943097;28;20558;-75
2023/04/25 09:06:37;;;;;;;5.80;2.08;;;;;;;;;;4953424;28;20894;-77
2023/04/25 09:09:08;;;;;;;5.07;1.75;;;;;;;;;;4950197;28;20085;-75
2023/04/25 09:11:35;;;;;;;12.90;2.70;;;;;;;;;;4950532;28;20053;-74
2023/04/25 09:14:11;;;;;;;5.93;2.03;;;;;;;;;;4932673;28;20125;-73
2023/04/25 09:16:56;;;;;;;5.80;2.00;;;;;;;;;;4901181;28;20524;-74
2023/04/25 09:19:23;;;;;;;7.40;2.10;;;;;;;;;;4936210;28;20041;-74
2023/04/25 09:21:49;;;;;;;4.82;1.63;;;;;;;;;;4948729;28;20039;-76
2023/04/25 09:24:15;;;;;;;7.82;1.67;;;;;;;;;;4944436;28;20410;-75
2023/04/25 09:26:41;;;;;;;3.42;1.52;;;;;;;;;;4950807;28;20036;-76
2023/04/25 09:29:07;;;;;;;6.97;2.20;;;;;;;;;;4941609;28;20039;-75
2023/04/25 09:31:33;;;;;;;7.15;2.33;;;;;;;;;;4949585;28;20059;-74
2023/04/25 09:34:00;;;;;;;5.63;2.00;;;;;;;;;;4941019;28;20450;-75
2023/04/25 09:36:27;;;;;;;9.57;2.20;;;;;;;;;;4951237;28;20039;-75
2023/04/25 09:38:52;;;;;;;6.32;1.88;;;;;;;;;;4954015;28;20446;-76
2023/04/25 09:41:23;;;;;;;5.25;1.60;;;;;;;;;;4947883;28;20030;-73
2023/04/25 09:43:49;;;;;;;5.85;1.77;;;;;;;;;;4938184;28;20048;-76
2023/04/25 09:46:15;;;;;;;7.00;1.50;;;;;;;;;;4949683;28;20046;-76
2023/04/25 09:48:48;;;;;;;9.18;2.33;;;;;;;;;;4951003;28;20479;-75
2023/04/25 09:51:13;;;;;;;3.30;1.25;;;;;;;;;;4946461;28;20410;-75
2023/04/25 09:53:43;;;;;;;5.43;1.88;;;;;;;;;;4932912;28;20047;-75
2023/04/25 09:56:11;;;;;;;3.90;1.98;;;;;;;;;;4940866;28;20055;-75
2023/04/25 09:58:39;;;;;;;3.55;1.88;;;;;;;;;;4954553;28;20030;-75
2023/04/25 10:01:07;;;;;;;4.93;1.38;;;;;;;;;;4953534;28;20559;-74
2023/04/25 10:03:34;;;;;;;6.53;1.65;;;;;;;;;;4946235;28;20090;-75
2023/04/25 10:06:01;;;;;;;5.15;1.52;;;;;;;;;;4931804;28;20095;-75
2023/04/25 10:08:37;;;;;;;5.78;1.73;;;;;;;;;;4944481;28;20038;-75
2023/04/25 10:11:08;;;;;;;4.75;1.70;;;;;;;;;;4952992;28;20066;-75
2023/04/25 10:13:35;;;;;;;8.50;1.70;;;;;;;;;;4954363;28;20113;-75
2023/04/25 10:16:04;;;;;;;4.82;1.83;;;;;;;;;;4955312;28;20039;-75
2023/04/25 10:18:31;;;;;;;2.38;1.08;;;;;;;;;;4949404;28;20039;-75
2023/04/25 10:21:04;;;;;;;3.33;1.60;;;;;;;;;;4940018;28;20125;-75
2023/04/25 10:23:31;;;;;;;1.77;1.00;;;;;;;;;;4943612;28;20748;-75
2023/04/25 10:25:57;;;;;;;3.63;1.27;;;;;;;;;;4948800;28;20039;-75
2023/04/25 10:28:22;;;;;;;2.75;1.30;;;;;;;;;;4950944;28;20078;-75
2023/04/25 10:31:05;;;;;;;3.47;1.05;;;;;;;;;;4950685;28;20593;-75
2023/04/25 10:33:38;;;;;;;5.18;1.83;;;;;;;;;;4924959;28;20051;-75
2023/04/25 10:36:23;;;;;;;6.05;1.38;;;;;;;;;;4949822;28;20412;-75
2023/04/25 10:38:51;;;;;;;3.63;1.63;;;;;;;;;;4956200;28;20148;-75
2023/04/25 10:41:21;;;;;;;5.35;1.25;;;;;;;;;;4951131;28;20508;-75
2023/04/25 10:43:47;;;;;;;4.82;1.48;;;;;;;;;;4925970;28;20039;-74
2023/04/25 10:46:25;;;;;;;5.60;1.50;;;;;;;;;;4943273;28;20454;-75
2023/04/25 10:48:52;;;;;;;2.95;1.20;;;;;;;;;;4949673;28;20562;-75
2023/04/25 10:51:34;;;;;;;3.53;1.35;;;;;;;;;;4952181;28;20038;-75
2023/04/25 10:54:04;;;;;;;5.57;1.65;;;;;;;;;;4925974;28;20042;-74
2023/04/25 10:56:33;;;;;;;2.70;1.10;;;;;;;;;;4955165;28;21320;-74
2023/04/25 10:59:09;;;;;;;4.82;1.75;;;;;;;;;;4944803;28;20039;-75
2023/04/25 11:01:43;;;;;;;4.13;1.73;;;;;;;;;;4951673;28;20031;-75
2023/04/25 11:04:26;;;;;;;4.53;1.45;;;;;;;;;;4932054;28;20051;-75
2023/04/25 11:07:02;;;;;;;4.15;1.77;;;;;;;;;;4927108;28;20039;-74
2023/04/25 11:09:28;;;;;;;7.13;1.67;;;;;;;;;;4952937;28;20031;-75
2023/04/25 11:11:55;;;;;;;3.05;1.10;;;;;;;;;;4958721;28;20039;-74
2023/04/25 11:14:21;;;;;;;6.78;1.55;;;;;;;;;;4938585;28;20038;-75
2023/04/25 11:16:47;;;;;;;2.08;1.05;;;;;;;;;;4945476;28;20545;-74
2023/04/25 11:19:12;;;;;;;2.05;1.25;;;;;;;;;;4942849;28;20047;-74
2023/04/25 11:21:38;;;;;;;4.15;1.60;;;;;;;;;;4954163;28;20058;-75
2023/04/25 11:24:04;;;;;;;5.32;1.27;;;;;;;;;;4932228;28;21831;-74
2023/04/25 11:26:30;;;;;;;3.85;1.23;;;;;;;;;;4952879;28;20054;-75
2023/04/25 11:29:00;;;;;;;3.92;1.52;;;;;;;;;;4949567;28;20050;-74
2023/04/25 11:31:25;;;;;;;3.97;1.75;;;;;;;;;;4936828;28;20058;-74
2023/04/25 11:33:53;;;;;;;1.85;1.15;;;;;;;;;;4934470;28;20862;-75
2023/04/25 11:36:19;;;;;;;3.00;1.25;;;;;;;;;;4942465;28;20042;-74
2023/04/25 11:38:44;;;;;;;1.30;1.00;;;;;;;;;;4952762;28;20065;-75
2023/04/25 11:41:11;;;;;;;4.43;1.30;;;;;;;;;;4949972;28;20032;-74
2023/04/25 11:43:36;;;;;;;4.05;1.40;;;;;;;;;;4944900;28;20179;-74
2023/04/25 11:46:07;;;;;;;5.95;1.40;;;;;;;;;;4940483;28;20125;-74
2023/04/25 11:48:41;;;;;;;5.22;1.40;;;;;;;;;;4956199;28;20054;-74
2023/04/25 11:51:06;;;;;;;3.92;1.52;;;;;;;;;;4948258;28;20044;-74
2023/04/25 11:53:32;;;;;;;2.60;1.67;;;;;;;;;;4936277;28;20042;-74
2023/04/25 11:55:57;;;;;;;5.80;1.48;;;;;;;;;;4930874;28;20054;-74
2023/04/25 11:58:23;;;;;;;4.00;1.65;;;;;;;;;;4934536;28;20074;-75
2023/04/25 12:00:50;;;;;;;5.03;1.90;;;;;;;;;;4950186;28;21971;-74
2023/04/25 12:03:17;;;;;;;4.35;1.40;;;;;;;;;;4935166;28;20050;-75
2023/04/25 12:05:42;;;;;;;2.35;1.60;;;;;;;;;;4948661;28;20061;-75
2023/04/25 12:08:15;;;;;;;3.50;2.00;;;;;;;;;;4952217;28;20496;-75
2023/04/25 12:10:42;;;;;;;2.97;1.27;;;;;;;;;;4945469;28;20039;-75
2023/04/25 12:13:27;;;;;;;2.30;1.08;;;;;;;;;;4929571;28;20051;-74
2023/04/25 12:15:56;;;;;;;2.75;1.38;;;;;;;;;;4946351;28;20443;-74
2023/04/25 12:18:23;;;;;;;2.72;1.20;;;;;;;;;;4947550;28;20038;-75
2023/04/25 12:20:49;;;;;;;5.47;1.40;;;;;;;;;;4944561;28;20094;-74
2023/04/25 12:23:15;;;;;;;4.82;1.35;;;;;;;;;;4931351;28;20129;-74
2023/04/25 12:25:42;;;;;;;5.75;2.05;;;;;;;;;;4947549;28;20053;-75
2023/04/25 12:28:23;;;;;;;3.10;1.35;;;;;;;;;;4952433;28;20042;-74
2023/04/25 12:31:06;;;;;;;4.15;1.13;;;;;;;;;;4949419;28;20043;-75
2023/04/25 12:33:36;;;;;;;2.15;1.17;;;;;;;;;;4930817;28;20042;-75
2023/04/25 12:36:10;;;;;;;3.20;1.13;;;;;;;;;;4920351;28;20139;-74
2023/04/25 12:38:38;;;;;;;2.90;1.17;;;;;;;;;;4953608;28;20057;-75
2023/04/25 12:41:04;;;;;;;4.18;1.30;;;;;;;;;;4947719;28;20114;-75
2023/04/25 12:43:30;;;;;;;3.55;1.40;;;;;;;;;;4937203;28;20130;-75
2023/04/25 12:45:57;;;;;;;3.10;1.27;;;;;;;;;;4951301;28;20042;-75
2023/04/25 12:48:24;;;;;;;3.90;1.05;;;;;;;;;;4939208;28;20027;-74
2023/04/25 12:50:51;;;;;;;3.47;1.30;;;;;;;;;;4952212;28;20471;-74
2023/04/25 12:53:21;;;;;;;2.90;1.40;;;;;;;;;;4943754;28;20047;-74
2023/04/25 12:55:47;;;;;;;2.50;1.20;;;;;;;;;;4952963;28;20038;-75
2023/04/25 12:58:14;;;;;;;4.90;1.77;;;;;;;;;;4960263;28;20054;-75
2023/04/25 13:00:39;;;;;;;3.25;1.73;;;;;;;;;;4950306;28;20054;-75
2023/04/25 13:03:05;;;;;;;4.25;1.20;;;;;;;;;;4933068;28;20047;-75
2023/04/25 13:05:30;;;;;;;3.67;1.42;;;;;;;;;;4945824;28;20442;-76
2023/04/25 13:07:56;;;;;;;5.60;2.63;;;;;;;;;;4949299;28;20045;-75
2023/04/25 13:10:21;;;;;;;3.35;1.40;;;;;;;;;;4946110;28;20037;-75
2023/04/25 13:12:47;;;;;;;3.38;1.38;;;;;;;;;;4925021;28;20057;-75
2023/04/25 13:15:12;;;;;;;1.92;1.60;;;;;;;;;;4938312;28;20039;-75
2023/04/25 13:17:38;;;;;;;2.88;1.30;;;;;;;;;;4947430;28;20500;-75
2023/04/25 13:20:08;;;;;;;5.07;1.58;;;;;;;;;;4945267;28;20061;-75
2023/04/25 13:22:39;;;;;;;6.22;1.40;;;;;;;;;;4931118;28;20035;-75
2023/04/25 13:25:06;;;;;;;1.67;1.10;;;;;;;;;;4945178;28;20050;-75
2023/04/25 13:27:33;;;;;;;4.38;1.75;;;;;;;;;;4934124;28;20070;-76
2023/04/25 13:30:06;;;;;;;2.08;1.10;;;;;;;;;;4943732;28;20043;-75
2023/04/25 13:32:33;;;;;;;3.42;1.25;;;;;;;;;;4934932;28;20046;-74
2023/04/25 13:34:59;;;;;;;5.13;1.67;;;;;;;;;;4944572;28;20737;-75
2023/04/25 13:37:24;;;;;;;3.83;1.33;;;;;;;;;;4947943;28;20047;-75
2023/04/25 13:39:50;;;;;;;3.35;1.42;;;;;;;;;;4949966;28;20048;-75
2023/04/25 13:42:16;;;;;;;3.03;1.40;;;;;;;;;;4931523;28;20035;-76
2023/04/25 13:44:41;;;;;;;4.80;1.25;;;;;;;;;;4931746;28;20053;-75
2023/04/25 13:47:07;;;;;;;6.85;1.67;;;;;;;;;;4949351;28;20082;-75
2023/04/25 13:49:33;;;;;;;4.53;1.30;;;;;;;;;;4947672;28;20121;-74
2023/04/25 13:51:58;;;;;;;3.70;1.35;;;;;;;;;;4930587;28;20097;-78
2023/04/25 13:54:24;;;;;;;2.97;1.25;;;;;;;;;;4927647;28;20625;-75
2023/04/25 13:56:50;;;;;;;3.38;1.40;;;;;;;;;;4941525;28;20166;-75
2023/04/25 13:59:15;;;;;;;2.85;0.98;;;;;;;;;;4950418;28;20043;-75
2023/04/25 14:01:41;;;;;;;2.65;1.05;;;;;;;;;;4950906;28;20169;-75
2023/04/25 14:04:06;;;;;;;4.13;1.52;;;;;;;;;;4935882;28;20606;-75
2023/04/25 14:06:32;;;;;;;3.13;1.80;;;;;;;;;;4949743;28;20031;-74
2023/04/25 14:09:00;;;;;;;2.72;1.33;;;;;;;;;;4924256;28;20396;-76
2023/04/25 14:11:25;;;;;;;3.60;1.33;;;;;;;;;;4952153;28;20499;-76
2023/04/25 14:13:51;;;;;;;3.47;1.70;;;;;;;;;;4934966;28;20034;-74
2023/04/25 14:16:16;;;;;;;2.10;1.30;;;;;;;;;;4949223;28;20031;-74
2023/04/25 14:18:41;;;;;;;3.10;1.10;;;;;;;;;;4955018;28;20031;-73
2023/04/25 14:21:07;;;;;;;2.38;0.90;;;;;;;;;;4953274;28;20039;-73
2023/04/25 14:23:33;;;;;;;4.85;1.35;;;;;;;;;;4940861;28;20134;-77
2023/04/25 14:25:58;;;;;;;3.55;1.27;;;;;;;;;;4954303;28;20046;-73
2023/04/25 14:28:23;;;;;;;0.98;0.90;;;;;;;;;;4954145;28;20062;-77
2023/04/25 14:30:49;;;;;;;3.28;1.40;;;;;;;;;;4955365;28;20042;-75
2023/04/25 14:33:14;;;;;;;3.53;1.20;;;;;;;;;;4938327;28;20062;-74
2023/04/25 14:35:40;;;;;;;1.25;0.93;;;;;;;;;;4958873;28;20566;-77
2023/04/25 14:38:05;;;;;;;5.28;1.75;;;;;;;;;;4946309;28;20041;-75
2023/04/25 14:40:31;;;;;;;4.97;1.65;;;;;;;;;;4931635;28;20042;-75